Time;durP1;ratioP1;P1;durP2;ratioP2;P2;SDS_P1;SDS_P2;PMS_P1;PMS_P2;Temp;Humidity;BMP_temperature;BMP_pressure;BME280_temperature;BME280_humidity;BME280_pressure;Samples;Min_cycle;Max_cycle;Signal;HPM_P1;HPM_P2
2023/07/21 00:02:14;;;;;;;1.07;1.07;;;;;;;25.37;55.50;97050.31;5096128;28;20610;-27
2023/07/21 00:04:41;;;;;;;1.00;1.00;;;;;;;25.42;55.59;97048.59;5091203;28;20199;-27
2023/07/21 00:07:08;;;;;;;0.93;0.93;;;;;;;25.41;55.60;97047.75;5098615;28;20203;-27
2023/07/21 00:09:34;;;;;;;1.57;1.00;;;;;;;25.41;55.66;97040.06;5100953;28;20571;-27
2023/07/21 00:12:01;;;;;;;1.20;1.10;;;;;;;25.40;55.59;97038.31;5100597;28;20212;-27
2023/07/21 00:14:28;;;;;;;1.20;1.10;;;;;;;25.42;55.75;97038.31;5100768;28;20220;-26
2023/07/21 00:16:55;;;;;;;1.30;1.20;;;;;;;25.42;55.63;97035.75;5094955;28;20226;-27
2023/07/21 00:19:21;;;;;;;1.27;1.17;;;;;;;25.42;55.36;97025.44;5098424;28;20203;-27
2023/07/21 00:21:49;;;;;;;1.10;1.10;;;;;;;25.42;55.45;97025.44;5091290;28;20227;-27
2023/07/21 00:24:18;;;;;;;1.10;1.10;;;;;;;25.41;55.32;97011.75;5092726;28;20216;-27
2023/07/21 00:26:46;;;;;;;1.27;1.17;;;;;;;25.41;55.40;97014.31;5098907;28;20241;-27
2023/07/21 00:29:13;;;;;;;1.37;1.10;;;;;;;25.42;55.82;97015.16;5094572;28;20220;-27
2023/07/21 00:31:39;;;;;;;1.10;1.00;;;;;;;25.41;55.38;97013.44;5098561;28;20203;-27
2023/07/21 00:34:08;;;;;;;1.35;1.02;;;;;;;25.41;55.39;97016.03;5100044;28;20273;-27
2023/07/21 00:36:35;;;;;;;1.13;1.03;;;;;;;25.40;55.77;97020.28;5095807;28;20191;-27
2023/07/21 00:39:03;;;;;;;1.10;1.00;;;;;;;25.41;55.53;97016.03;5100092;28;20196;-27
2023/07/21 00:41:30;;;;;;;1.10;1.10;;;;;;;25.41;55.61;97016.03;5099385;28;20219;-27
2023/07/21 00:43:56;;;;;;;1.13;1.10;;;;;;;25.41;55.38;97010.88;5097479;28;20574;-27
2023/07/21 00:46:23;;;;;;;1.13;1.03;;;;;;;25.39;55.65;97010.88;5099576;28;20196;-26
2023/07/21 00:48:51;;;;;;;0.90;0.90;;;;;;;25.40;55.65;97006.59;5097644;28;20274;-26
2023/07/21 00:51:17;;;;;;;1.10;1.10;;;;;;;25.40;55.60;97006.59;5080955;28;20196;-27
2023/07/21 00:53:45;;;;;;;1.13;1.03;;;;;;;25.40;55.58;97002.28;5081927;28;20754;-27
2023/07/21 00:56:11;;;;;;;1.40;0.90;;;;;;;25.40;55.45;97004.03;5098299;28;20196;-27
2023/07/21 00:58:39;;;;;;;1.10;1.00;;;;;;;25.39;55.89;97008.28;5081342;28;20284;-26
2023/07/21 01:01:06;;;;;;;1.23;1.13;;;;;;;25.41;55.58;97005.72;5094998;28;20203;-27
2023/07/21 01:03:35;;;;;;;1.20;1.13;;;;;;;25.41;55.75;96996.31;5098583;28;20215;-27
2023/07/21 01:06:02;;;;;;;0.97;0.97;;;;;;;25.40;55.63;96997.13;5098794;28;20227;-27
2023/07/21 01:08:29;;;;;;;1.10;1.10;;;;;;;25.40;55.64;97002.28;5098899;28;20241;-27
2023/07/21 01:10:55;;;;;;;1.00;1.00;;;;;;;25.40;55.68;96997.13;5097923;28;20643;-27
2023/07/21 01:13:22;;;;;;;1.20;1.10;;;;;;;25.40;55.98;96992.00;5079760;28;20211;-28
2023/07/21 01:15:49;;;;;;;1.00;1.00;;;;;;;25.38;55.60;96983.44;5092460;28;20207;-27
2023/07/21 01:18:16;;;;;;;1.27;1.07;;;;;;;25.40;55.64;96997.13;5094866;28;20603;-27
2023/07/21 01:20:43;;;;;;;1.20;1.10;;;;;;;25.39;55.86;96984.28;5095306;28;20210;-27
2023/07/21 01:23:15;;;;;;;0.90;0.90;;;;;;;25.40;55.98;96986.84;5080877;28;20230;-27
2023/07/21 01:25:42;;;;;;;0.97;0.97;;;;;;;25.40;55.88;96986.00;5079335;28;20193;-27
2023/07/21 01:28:08;;;;;;;1.10;1.00;;;;;;;25.40;55.87;96984.28;5095788;28;20219;-27
2023/07/21 01:30:35;;;;;;;1.00;1.00;;;;;;;25.39;55.69;96981.69;5096694;28;20215;-27
2023/07/21 01:33:02;;;;;;;1.00;1.00;;;;;;;25.39;55.97;96976.56;5093471;28;20262;-27
2023/07/21 01:35:30;;;;;;;1.00;1.00;;;;;;;25.38;55.69;96983.44;5081738;28;20203;-27
2023/07/21 01:37:56;;;;;;;0.93;0.93;;;;;;;25.40;55.93;96983.44;5071962;28;20261;-27
2023/07/21 01:40:23;;;;;;;1.47;1.20;;;;;;;25.39;56.03;96984.28;5079166;28;20747;-27
2023/07/21 01:42:49;;;;;;;1.00;1.00;;;;;;;25.39;55.53;96980.00;5098437;28;20242;-26
2023/07/21 01:45:16;;;;;;;1.00;1.00;;;;;;;25.38;56.03;96972.28;5081663;28;20200;-27
2023/07/21 01:47:44;;;;;;;0.90;0.90;;;;;;;25.40;55.97;96973.16;5098321;28;20203;-26
2023/07/21 01:50:13;;;;;;;1.00;1.00;;;;;;;25.39;55.68;96972.28;5099415;28;20282;-27
2023/07/21 01:52:40;;;;;;;1.00;1.00;;;;;;;25.40;55.87;96965.44;5089288;28;20219;-27
2023/07/21 01:55:14;;;;;;;1.30;1.20;;;;;;;25.39;55.55;96959.41;5096432;28;20199;-27
2023/07/21 01:57:43;;;;;;;0.90;0.90;;;;;;;25.38;55.61;96954.25;5090031;28;20222;-27
2023/07/21 02:00:12;;;;;;;1.10;1.00;;;;;;;25.39;55.72;96972.28;5088018;28;20207;-27
2023/07/21 02:02:44;;;;;;;1.00;1.00;;;;;;;25.40;55.78;96965.44;5092234;28;20219;-27
2023/07/21 02:05:24;;;;;;;1.10;1.10;;;;;;;25.40;55.93;96960.28;5096661;28;20213;-27
2023/07/21 02:07:51;;;;;;;1.00;1.00;;;;;;;25.39;55.96;96954.28;5098394;28;20200;-27
2023/07/21 02:10:18;;;;;;;0.90;0.90;;;;;;;25.39;55.91;96954.28;5098958;28;20587;-27
2023/07/21 02:12:44;;;;;;;1.00;1.00;;;;;;;25.39;56.11;96951.69;5098868;28;20269;-27
2023/07/21 02:15:11;;;;;;;1.20;1.20;;;;;;;25.39;55.81;96950.81;5099338;28;20207;-27
2023/07/21 02:17:38;;;;;;;1.00;1.00;;;;;;;25.40;55.78;96945.69;5096107;28;20227;-27
2023/07/21 02:20:08;;;;;;;1.27;1.10;;;;;;;25.40;55.65;96947.41;5094209;28;20202;-27
2023/07/21 02:22:39;;;;;;;1.30;1.20;;;;;;;25.39;56.07;96941.41;5094659;28;20215;-26
2023/07/21 02:25:09;;;;;;;1.03;1.00;;;;;;;25.38;55.70;96939.69;5099400;28;20202;-27
2023/07/21 02:27:35;;;;;;;1.07;1.07;;;;;;;25.40;55.67;96942.28;5098755;28;20192;-27
2023/07/21 02:30:02;;;;;;;0.90;0.90;;;;;;;25.39;55.81;96937.97;5098551;28;20207;-26
2023/07/21 02:32:29;;;;;;;1.00;1.00;;;;;;;25.39;55.84;96937.97;5097737;28;20192;-27
2023/07/21 02:34:59;;;;;;;0.90;0.90;;;;;;;25.38;55.80;96931.97;5098918;28;20199;-27
2023/07/21 02:37:25;;;;;;;1.07;1.07;;;;;;;25.37;55.95;96922.53;5098563;28;20225;-27
2023/07/21 02:39:52;;;;;;;1.00;1.00;;;;;;;25.38;55.57;96920.81;5098170;28;20196;-27
2023/07/21 02:42:18;;;;;;;0.90;0.90;;;;;;;25.31;55.66;96914.75;5098678;28;20655;-27
2023/07/21 02:44:45;;;;;;;1.00;1.00;;;;;;;25.38;55.60;96924.25;5092245;28;20195;-27
2023/07/21 02:47:14;;;;;;;0.80;0.80;;;;;;;25.37;55.72;96932.81;5086612;28;20197;-27
2023/07/21 02:49:41;;;;;;;1.17;1.10;;;;;;;25.37;56.07;96932.81;5097603;28;20662;-27
2023/07/21 02:52:07;;;;;;;0.97;0.97;;;;;;;25.37;56.17;96930.25;5098600;28;20192;-27
2023/07/21 02:54:34;;;;;;;0.90;0.90;;;;;;;25.37;55.91;96927.66;5098008;28;20215;-27
2023/07/21 02:57:00;;;;;;;1.00;1.00;;;;;;;25.38;55.67;96928.53;5091216;28;20207;-27
2023/07/21 02:59:27;;;;;;;1.00;1.00;;;;;;;25.35;56.01;96925.94;5086160;28;20686;-27
2023/07/21 03:01:54;;;;;;;1.00;1.00;;;;;;;25.37;56.14;96926.84;5092367;28;20199;-26
2023/07/21 03:04:23;;;;;;;1.03;1.03;;;;;;;25.37;56.19;96916.53;5089801;28;20231;-26
2023/07/21 03:06:49;;;;;;;0.90;0.90;;;;;;;25.37;55.89;96922.53;5096324;28;20196;-26
2023/07/21 03:09:16;;;;;;;1.10;1.10;;;;;;;25.34;56.27;96914.78;5091774;28;20192;-26
2023/07/21 03:11:43;;;;;;;1.00;1.00;;;;;;;25.37;55.79;96926.84;5092103;28;20206;-27
2023/07/21 03:14:12;;;;;;;0.80;0.80;;;;;;;25.37;55.73;96922.53;5095283;28;20219;-27
2023/07/21 03:16:40;;;;;;;0.97;0.97;;;;;;;25.37;56.07;96926.84;5088072;28;20330;-27
2023/07/21 03:19:07;;;;;;;1.10;1.10;;;;;;;25.36;56.20;96920.81;5094740;28;20628;-27
2023/07/21 03:21:33;;;;;;;1.07;1.07;;;;;;;25.30;56.10;96918.19;5092591;28;20658;-27
2023/07/21 03:24:00;;;;;;;0.90;0.90;;;;;;;25.36;56.50;96925.09;5096054;28;20697;-27
2023/07/21 03:26:27;;;;;;;0.97;0.97;;;;;;;25.37;55.75;96922.53;5094491;28;20200;-26
2023/07/21 03:28:55;;;;;;;0.90;0.90;;;;;;;25.37;56.07;96926.84;5092670;28;20278;-27
2023/07/21 03:31:22;;;;;;;1.07;1.07;;;;;;;25.36;56.06;96928.53;5093751;28;20206;-27
2023/07/21 03:33:48;;;;;;;1.00;1.00;;;;;;;25.37;56.05;96927.66;5095557;28;20221;-27
2023/07/21 03:36:16;;;;;;;1.13;1.07;;;;;;;25.37;55.90;96921.69;5091523;28;20202;-27
2023/07/21 03:38:42;;;;;;;1.10;1.10;;;;;;;25.37;55.80;96929.41;5092478;28;20223;-27
2023/07/21 03:41:09;;;;;;;1.00;1.00;;;;;;;25.37;56.07;96925.09;5095360;28;20195;-27
2023/07/21 03:43:39;;;;;;;1.20;1.10;;;;;;;25.37;55.97;96919.94;5088801;28;20251;-26
2023/07/21 03:46:06;;;;;;;1.00;1.00;;;;;;;25.37;56.10;96927.66;5091282;28;20191;-27
2023/07/21 03:48:33;;;;;;;1.20;1.10;;;;;;;25.37;55.74;96934.53;5092008;28;20202;-27
2023/07/21 03:51:05;;;;;;;1.10;1.10;;;;;;;25.36;55.97;96925.09;5095057;28;20211;-27
2023/07/21 03:53:31;;;;;;;1.03;1.03;;;;;;;25.36;55.90;96928.53;5093450;28;20320;-27
2023/07/21 03:56:02;;;;;;;1.30;1.20;;;;;;;25.37;56.05;96931.97;5093667;28;20208;-27
2023/07/21 03:58:29;;;;;;;1.43;1.20;;;;;;;25.36;55.70;96928.53;5093548;28;20211;-27
2023/07/21 04:00:55;;;;;;;1.10;1.10;;;;;;;25.36;55.90;96923.38;5092033;28;20200;-27
2023/07/21 04:03:24;;;;;;;1.20;1.10;;;;;;;25.37;55.79;96921.69;5090480;28;20220;-27
2023/07/21 04:05:52;;;;;;;2.30;1.10;;;;;;;25.36;56.17;96928.53;5092360;28;20282;-27
2023/07/21 04:08:19;;;;;;;1.75;1.20;;;;;;;25.36;55.96;96925.97;5093708;28;20583;-28
2023/07/21 04:10:45;;;;;;;1.37;1.20;;;;;;;25.36;55.93;96932.81;5095639;28;20203;-27
2023/07/21 04:13:12;;;;;;;0.97;0.97;;;;;;;25.36;55.71;96943.97;5095082;28;20276;-26
2023/07/21 04:15:38;;;;;;;1.13;1.10;;;;;;;25.36;55.83;96943.97;5095597;28;20217;-27
2023/07/21 04:18:05;;;;;;;3.73;1.97;;;;;;;25.36;54.14;96936.25;5092665;28;20215;-27
2023/07/21 04:20:32;;;;;;;2.90;2.33;;;;;;;25.34;53.05;96935.38;5090720;28;20219;-27
2023/07/21 04:22:59;;;;;;;6.93;2.40;;;;;;;25.36;53.62;96938.81;5090741;28;20642;-27
2023/07/21 04:25:26;;;;;;;6.23;2.10;;;;;;;25.36;53.69;96943.09;5092812;28;20201;-27
2023/07/21 04:27:54;;;;;;;4.50;2.37;;;;;;;25.36;54.39;96937.94;5090475;28;20269;-27
2023/07/21 04:30:22;;;;;;;3.47;2.13;;;;;;;25.36;54.66;96941.38;5095077;28;20907;-27
2023/07/21 04:32:49;;;;;;;4.23;2.17;;;;;;;25.36;54.52;96932.81;5089139;28;20230;-27
2023/07/21 04:35:16;;;;;;;5.90;2.30;;;;;;;25.36;54.59;96923.38;5092397;28;20203;-26
2023/07/21 04:37:43;;;;;;;2.40;2.20;;;;;;;25.35;54.63;96926.81;5089831;28;20201;-27
2023/07/21 04:40:11;;;;;;;3.13;2.13;;;;;;;25.37;54.89;96935.38;5095748;28;20557;-26
2023/07/21 04:42:38;;;;;;;2.87;2.10;;;;;;;25.37;54.77;96934.53;5091824;28;20219;-27
2023/07/21 04:45:11;;;;;;;5.00;2.40;;;;;;;25.36;54.63;96940.53;5096306;28;20200;-27
2023/07/21 04:47:41;;;;;;;5.20;2.10;;;;;;;25.35;54.79;96937.09;5093435;28;20195;-27
2023/07/21 04:50:08;;;;;;;1.97;1.77;;;;;;;25.36;54.64;96930.22;5096406;28;20199;-27
2023/07/21 04:52:36;;;;;;;2.27;1.80;;;;;;;25.35;54.91;96931.09;5094076;28;20632;-27
2023/07/21 04:55:05;;;;;;;1.87;1.73;;;;;;;25.35;54.73;96926.81;5091488;28;20195;-27
2023/07/21 04:57:32;;;;;;;2.97;2.20;;;;;;;25.33;54.85;96937.94;5095118;28;20250;-27
2023/07/21 04:59:59;;;;;;;2.97;2.00;;;;;;;25.35;55.16;96938.81;5093626;28;20219;-28
2023/07/21 05:02:28;;;;;;;2.27;1.87;;;;;;;25.35;55.26;96936.25;5094564;28;20223;-27
2023/07/21 05:04:57;;;;;;;2.77;2.07;;;;;;;25.35;55.30;96931.97;5094740;28;20225;-28
2023/07/21 05:07:24;;;;;;;4.13;2.10;;;;;;;25.36;54.89;96922.50;5094830;28;20261;-28
2023/07/21 05:09:51;;;;;;;13.53;3.00;;;;;;;25.33;53.27;96918.22;5094285;28;20602;-28
2023/07/21 05:12:18;;;;;;;7.60;3.00;;;;;;;25.32;52.41;96919.09;5092546;28;20199;-27
2023/07/21 05:14:44;;;;;;;5.07;2.60;;;;;;;25.31;52.73;96919.88;5092682;28;20206;-28
2023/07/21 05:17:11;;;;;;;4.47;2.90;;;;;;;25.30;53.28;96910.47;5094742;28;20370;-28
2023/07/21 05:19:38;;;;;;;6.37;2.87;;;;;;;25.28;53.81;96906.16;5088504;28;20307;-27
2023/07/21 05:22:05;;;;;;;6.10;2.70;;;;;;;25.26;53.93;96913.88;5094735;28;20202;-27
2023/07/21 05:24:32;;;;;;;4.47;2.60;;;;;;;25.24;54.17;96907.88;5092121;28;20222;-27
2023/07/21 05:26:59;;;;;;;4.70;2.80;;;;;;;25.21;53.89;96913.00;5093531;28;20203;-26
2023/07/21 05:29:25;;;;;;;5.27;2.80;;;;;;;25.19;54.21;96909.53;5094523;28;20243;-27
2023/07/21 05:31:52;;;;;;;8.07;3.00;;;;;;;25.19;54.34;96903.56;5090470;28;20215;-27
2023/07/21 05:34:21;;;;;;;4.57;2.73;;;;;;;25.17;54.47;96905.25;5086490;28;20223;-29
2023/07/21 05:36:47;;;;;;;3.40;2.47;;;;;;;25.16;54.47;96908.69;5089569;28;20192;-29
2023/07/21 05:39:14;;;;;;;3.97;2.40;;;;;;;25.13;54.54;96909.50;5094386;28;20744;-28
2023/07/21 05:41:41;;;;;;;3.50;2.63;;;;;;;25.12;54.22;96902.66;5091918;28;20207;-27
2023/07/21 05:44:08;;;;;;;5.00;2.83;;;;;;;25.10;54.68;96909.50;5086411;28;20243;-28
2023/07/21 05:46:39;;;;;;;9.10;2.80;;;;;;;25.09;53.77;96908.66;5092404;28;20199;-28
2023/07/21 05:49:06;;;;;;;5.23;2.97;;;;;;;25.08;52.04;96900.94;5079504;28;20224;-28
2023/07/21 05:51:33;;;;;;;4.97;2.70;;;;;;;25.08;51.09;96900.94;5084565;28;20231;-29
2023/07/21 05:53:59;;;;;;;6.97;2.80;;;;;;;25.05;51.98;96906.88;5093122;28;20250;-28
2023/07/21 05:56:26;;;;;;;2.80;2.60;;;;;;;25.04;53.56;96894.03;5092292;28;20235;-29
2023/07/21 05:58:53;;;;;;;3.83;2.80;;;;;;;25.02;53.68;96901.72;5087821;28;20251;-35
2023/07/21 06:01:20;;;;;;;3.50;2.80;;;;;;;25.00;54.15;96890.59;5089414;28;20206;-27
2023/07/21 06:03:47;;;;;;;4.10;2.70;;;;;;;25.00;54.44;96888.03;5073829;28;20235;-29
2023/07/21 06:06:14;;;;;;;3.63;2.60;;;;;;;25.00;54.27;96879.44;5080708;28;20200;-28
2023/07/21 06:08:41;;;;;;;3.57;2.63;;;;;;;24.99;54.50;96888.84;5091706;28;20654;-29
2023/07/21 06:11:07;;;;;;;4.03;2.93;;;;;;;24.97;53.64;96885.44;5093546;28;20571;-27
2023/07/21 06:13:34;;;;;;;3.67;2.80;;;;;;;24.99;51.10;96883.72;5089189;28;20224;-27
2023/07/21 06:16:00;;;;;;;4.43;2.90;;;;;;;24.98;50.53;96892.28;5092735;28;20199;-28
2023/07/21 06:18:27;;;;;;;3.87;2.90;;;;;;;24.96;49.50;96881.13;5093150;28;20467;-27
2023/07/21 06:20:54;;;;;;;3.70;2.83;;;;;;;24.96;49.52;96885.44;5092186;28;20203;-29
2023/07/21 06:23:20;;;;;;;8.40;3.33;;;;;;;24.95;51.11;96886.25;5091361;28;20270;-27
2023/07/21 06:25:47;;;;;;;4.77;2.90;;;;;;;24.93;52.35;96896.53;5093025;28;20208;-28
2023/07/21 06:28:14;;;;;;;5.13;2.93;;;;;;;24.92;53.36;96891.38;5093456;28;20260;-28
2023/07/21 06:30:41;;;;;;;4.40;2.60;;;;;;;24.92;53.68;96893.97;5093350;28;20591;-33
2023/07/21 06:33:07;;;;;;;3.40;2.60;;;;;;;24.89;53.71;96881.97;5090606;28;20215;-27
2023/07/21 06:35:35;;;;;;;3.93;3.00;;;;;;;24.91;53.56;96874.25;5093747;28;20250;-28
2023/07/21 06:38:01;;;;;;;3.40;2.90;;;;;;;24.90;52.17;96875.97;5092755;28;20206;-27
2023/07/21 06:40:28;;;;;;;4.43;2.90;;;;;;;24.90;53.10;96869.97;5093522;28;20211;-28
2023/07/21 06:42:55;;;;;;;4.70;2.47;;;;;;;24.89;53.21;96869.09;5093321;28;20216;-27
2023/07/21 06:45:21;;;;;;;3.70;2.90;;;;;;;24.91;54.10;96866.53;5093204;28;20203;-28
2023/07/21 06:47:48;;;;;;;2.60;2.40;;;;;;;24.89;54.05;96856.25;5092974;28;20621;-27
2023/07/21 06:50:14;;;;;;;3.07;2.63;;;;;;;24.89;53.79;96866.53;5092455;28;20650;-28
2023/07/21 06:52:41;;;;;;;5.40;2.83;;;;;;;24.89;54.14;96874.25;5092964;28;20803;-28
2023/07/21 06:55:08;;;;;;;3.47;2.90;;;;;;;24.90;54.02;96865.66;5093256;28;20195;-27
2023/07/21 06:57:35;;;;;;;4.23;3.00;;;;;;;24.90;53.98;96864.84;5093635;28;20204;-28
2023/07/21 07:00:03;;;;;;;3.87;2.63;;;;;;;24.90;53.86;96863.09;5093147;28;20227;-28
2023/07/21 07:02:30;;;;;;;4.57;2.60;;;;;;;24.90;53.97;96855.38;5092490;28;20195;-29
2023/07/21 07:04:57;;;;;;;4.03;2.70;;;;;;;24.90;54.34;96854.56;5092636;28;20626;-27
2023/07/21 07:07:24;;;;;;;3.30;2.67;;;;;;;24.90;54.51;96849.41;5092250;28;20242;-27
2023/07/21 07:09:50;;;;;;;3.07;2.70;;;;;;;24.90;54.62;96846.84;5089337;28;20198;-28
2023/07/21 07:12:17;;;;;;;6.30;2.67;;;;;;;24.90;54.59;96845.09;5092018;28;20245;-28
2023/07/21 07:14:46;;;;;;;2.80;2.60;;;;;;;24.90;54.31;96846.84;5089278;28;20196;-27
2023/07/21 07:17:13;;;;;;;2.97;2.73;;;;;;;24.89;54.64;96851.13;5090745;28;20195;-26
2023/07/21 07:19:40;;;;;;;3.30;2.30;;;;;;;24.89;54.76;96851.13;5092617;28;20766;-28
2023/07/21 07:22:09;;;;;;;2.47;2.27;;;;;;;24.89;54.43;96848.53;5090312;28;20752;-28
2023/07/21 07:24:35;;;;;;;3.10;2.80;;;;;;;24.89;54.69;96850.25;5076302;28;20226;-28
2023/07/21 07:27:02;;;;;;;2.73;2.53;;;;;;;24.90;54.39;96857.13;5090460;28;20196;-27
2023/07/21 07:29:29;;;;;;;2.60;2.40;;;;;;;24.90;54.56;96857.13;5087037;28;20211;-27
2023/07/21 07:31:55;;;;;;;3.03;2.67;;;;;;;24.90;54.68;96857.13;5082618;28;20204;-27
2023/07/21 07:34:22;;;;;;;4.17;2.17;;;;;;;24.90;54.60;96855.38;5088894;28;20211;-28
2023/07/21 07:36:51;;;;;;;2.83;2.40;;;;;;;24.90;54.85;96860.53;5089699;28;20211;-26
2023/07/21 07:39:18;;;;;;;3.63;2.23;;;;;;;24.90;54.87;96857.13;5092571;28;20215;-26
2023/07/21 07:41:45;;;;;;;4.70;2.70;;;;;;;24.90;54.51;96862.25;5090446;28;20199;-27
2023/07/21 07:44:11;;;;;;;4.23;2.40;;;;;;;24.92;55.05;96863.13;5091991;28;20226;-28
2023/07/21 07:46:38;;;;;;;3.57;2.70;;;;;;;24.91;54.61;96861.41;5087455;28;20203;-27
2023/07/21 07:49:05;;;;;;;2.80;2.60;;;;;;;24.92;55.09;96870.81;5083040;28;20274;-28
2023/07/21 07:51:31;;;;;;;2.90;2.50;;;;;;;24.92;54.85;96873.38;5082483;28;20728;-28
2023/07/21 07:53:58;;;;;;;10.60;2.70;;;;;;;24.92;54.91;96874.25;5088649;28;20690;-31
2023/07/21 07:56:26;;;;;;;3.67;2.77;;;;;;;24.92;55.09;96873.38;5088535;28;20688;-29
2023/07/21 07:58:52;;;;;;;2.93;2.40;;;;;;;24.91;55.14;96866.53;5089833;28;20226;-31
2023/07/21 08:01:19;;;;;;;3.07;2.33;;;;;;;24.92;55.05;96884.53;5073205;28;20249;-26
2023/07/21 08:03:45;;;;;;;2.97;2.50;;;;;;;24.92;55.20;96870.81;5092300;28;20224;-27
2023/07/21 08:06:12;;;;;;;2.50;2.30;;;;;;;24.93;55.12;96875.13;5088972;28;20285;-27
2023/07/21 08:08:40;;;;;;;9.73;2.30;;;;;;;24.92;55.31;96876.84;5092125;28;20698;-28
2023/07/21 08:11:06;;;;;;;3.87;2.20;;;;;;;24.92;54.71;96881.09;5090185;28;20261;-28
2023/07/21 08:13:33;;;;;;;2.60;2.40;;;;;;;24.92;54.82;96881.09;5083535;28;20215;-31
2023/07/21 08:16:00;;;;;;;2.80;2.30;;;;;;;24.92;55.23;96881.09;5089919;28;20199;-26
2023/07/21 08:18:27;;;;;;;4.40;2.57;;;;;;;24.92;55.16;96873.38;5080047;28;20718;-27
2023/07/21 08:20:53;;;;;;;6.40;2.30;;;;;;;24.92;54.76;96868.25;5088636;28;20231;-28
2023/07/21 08:23:20;;;;;;;3.57;2.40;;;;;;;24.93;54.66;96870.84;5090747;28;20211;-27
2023/07/21 08:25:56;;;;;;;5.37;2.43;;;;;;;24.93;54.42;96864.84;5089024;28;20198;-27
2023/07/21 08:28:23;;;;;;;3.17;2.40;;;;;;;24.94;55.07;96869.13;5091379;28;20192;-28
2023/07/21 08:30:50;;;;;;;2.87;2.20;;;;;;;24.96;55.02;96864.88;5092996;28;20579;-27
2023/07/21 08:33:25;;;;;;;3.40;2.30;;;;;;;24.97;54.46;96879.44;5092029;28;20211;-27
2023/07/21 08:35:51;;;;;;;2.60;2.00;;;;;;;24.96;54.65;96881.13;5095400;28;20248;-28
2023/07/21 08:38:18;;;;;;;2.43;2.23;;;;;;;24.97;54.60;96892.28;5093162;28;20245;-28
2023/07/21 08:40:47;;;;;;;3.83;2.40;;;;;;;24.97;55.10;96898.31;5093455;28;20219;-28
2023/07/21 08:43:14;;;;;;;2.37;2.17;;;;;;;24.98;54.81;96894.88;5076407;28;20219;-27
2023/07/21 08:45:40;;;;;;;7.07;2.30;;;;;;;24.99;55.27;96899.16;5092687;28;20196;-28
2023/07/21 08:48:07;;;;;;;3.03;2.33;;;;;;;25.00;54.70;96906.03;5075840;28;20211;-27
2023/07/21 08:50:35;;;;;;;2.50;2.30;;;;;;;25.01;55.04;96897.44;5088082;28;20629;-28
2023/07/21 08:53:03;;;;;;;2.30;2.10;;;;;;;25.02;54.80;96890.59;5088435;28;20212;-27
2023/07/21 08:55:29;;;;;;;2.43;2.23;;;;;;;25.03;55.24;96892.31;5094001;28;20254;-28
2023/07/21 08:57:58;;;;;;;2.23;2.03;;;;;;;25.02;54.93;96901.72;5089618;28;20576;-28
2023/07/21 09:00:25;;;;;;;2.43;2.23;;;;;;;25.03;55.03;96903.47;5093961;28;20219;-28
2023/07/21 09:02:57;;;;;;;2.33;2.07;;;;;;;25.04;54.98;96907.75;5089106;28;20706;-28
2023/07/21 09:05:24;;;;;;;2.40;2.20;;;;;;;25.05;54.86;96898.34;5092766;28;20265;-36
2023/07/21 09:07:51;;;;;;;2.43;2.10;;;;;;;25.05;54.89;96908.63;5092265;28;20223;-28
2023/07/21 09:10:33;;;;;;;4.40;2.57;;;;;;;25.05;55.22;96908.63;5091275;28;20196;-28
2023/07/21 09:13:00;;;;;;;5.93;2.47;;;;;;;25.05;55.22;96908.63;5082849;28;20613;-27
2023/07/21 09:15:27;;;;;;;2.50;2.07;;;;;;;25.05;55.33;96917.19;5093759;28;20200;-29
2023/07/21 09:17:53;;;;;;;2.67;2.20;;;;;;;25.06;54.94;96912.91;5089635;28;20200;-27
2023/07/21 09:20:20;;;;;;;3.47;2.30;;;;;;;25.07;55.28;96907.78;5092702;28;20219;-28
2023/07/21 09:22:49;;;;;;;3.20;2.20;;;;;;;25.06;54.80;96905.19;5091736;28;20369;-27
2023/07/21 09:25:20;;;;;;;2.63;2.20;;;;;;;25.07;54.94;96894.03;5090733;28;20203;-27
2023/07/21 09:27:56;;;;;;;2.40;2.20;;;;;;;25.07;54.90;96896.63;5090541;28;20195;-28
2023/07/21 09:30:23;;;;;;;2.67;2.20;;;;;;;25.07;54.87;96894.03;5089320;28;21453;-27
2023/07/21 09:32:55;;;;;;;3.10;2.20;;;;;;;25.08;55.06;96899.19;5092924;28;20222;-27
2023/07/21 09:35:22;;;;;;;5.07;2.50;;;;;;;25.08;54.91;96890.66;5073622;28;20196;-36
2023/07/21 09:37:50;;;;;;;3.67;2.30;;;;;;;25.08;54.91;96888.91;5075678;28;20200;-27
2023/07/21 09:40:17;;;;;;;2.77;2.20;;;;;;;25.08;54.84;96888.06;5075821;28;20600;-27
2023/07/21 09:42:43;;;;;;;2.50;2.27;;;;;;;25.08;55.06;96881.19;5075378;28;20357;-28
2023/07/21 09:45:10;;;;;;;2.67;2.17;;;;;;;25.08;54.77;96878.63;5082056;28;20203;-28
2023/07/21 09:47:40;;;;;;;2.60;2.40;;;;;;;25.08;55.01;96875.22;5059032;28;20291;-28
2023/07/21 09:50:10;;;;;;;2.33;2.13;;;;;;;25.09;55.01;96875.22;5078461;28;20204;-28
2023/07/21 09:52:37;;;;;;;3.13;2.00;;;;;;;25.10;55.39;96868.34;5082056;28;20231;-28
2023/07/21 09:55:09;;;;;;;3.63;2.60;;;;;;;25.10;54.84;96863.19;5080532;28;20283;-27
2023/07/21 09:57:46;;;;;;;4.80;2.50;;;;;;;25.11;54.84;96857.22;5082137;28;20640;-28
2023/07/21 10:00:14;;;;;;;2.70;2.13;;;;;;;25.11;55.06;96857.22;5080759;28;20223;-30
2023/07/21 10:02:47;;;;;;;2.37;2.10;;;;;;;25.10;54.82;96858.94;5084227;28;20277;-27
2023/07/21 10:05:14;;;;;;;2.53;2.20;;;;;;;25.11;54.81;96855.50;5088686;28;20203;-28
2023/07/21 10:07:48;;;;;;;2.20;2.10;;;;;;;25.11;55.23;96849.50;5081072;28;20199;-36
2023/07/21 10:10:15;;;;;;;2.13;1.87;;;;;;;25.11;55.10;96849.50;5106271;28;20662;-28
2023/07/21 10:12:52;;;;;;;2.53;2.33;;;;;;;25.11;54.94;96846.94;5087056;28;20223;-27
2023/07/21 10:15:29;;;;;;;2.23;2.03;;;;;;;25.11;54.93;96858.06;5082814;28;20284;-28
2023/07/21 10:18:12;;;;;;;2.13;2.00;;;;;;;25.10;55.32;96852.91;5086253;28;20195;-28
2023/07/21 10:20:45;;;;;;;2.73;2.30;;;;;;;25.09;55.06;96861.50;5081290;28;20282;-27
2023/07/21 10:23:16;;;;;;;2.00;1.90;;;;;;;25.09;55.32;96858.94;5084866;28;20220;-27
2023/07/21 10:26:07;;;;;;;2.50;2.30;;;;;;;25.02;54.90;96842.59;5093032;28;20269;-29
2023/07/21 10:28:43;;;;;;;2.90;2.10;;;;;;;25.08;55.34;96855.47;5082838;28;20287;-28
2023/07/21 10:31:23;;;;;;;2.23;2.10;;;;;;;25.09;55.41;96859.78;5086725;28;20198;-27
2023/07/21 10:34:11;;;;;;;2.50;2.20;;;;;;;25.09;55.47;96864.06;5090080;28;20219;-27
2023/07/21 10:36:45;;;;;;;2.63;2.10;;;;;;;25.08;55.02;96862.38;5091392;28;20578;-27
2023/07/21 10:39:12;;;;;;;4.00;2.17;;;;;;;25.08;55.46;96863.19;5092445;28;20705;-28
2023/07/21 10:41:39;;;;;;;2.97;2.13;;;;;;;25.08;55.39;96864.94;5083825;28;20633;-30
2023/07/21 10:44:09;;;;;;;2.20;2.00;;;;;;;25.09;55.19;96862.38;5081842;28;20694;-28
2023/07/21 10:46:43;;;;;;;2.10;1.93;;;;;;;25.09;55.35;96867.50;5082705;28;20251;-28
2023/07/21 10:49:10;;;;;;;2.37;2.07;;;;;;;25.09;55.37;96867.50;5086300;28;20692;-29
2023/07/21 10:51:37;;;;;;;2.30;2.10;;;;;;;25.10;55.01;96870.91;5087539;28;20203;-28
2023/07/21 10:54:04;;;;;;;2.63;2.43;;;;;;;25.10;55.46;96864.06;5092462;28;20260;-27
2023/07/21 10:56:35;;;;;;;2.00;1.90;;;;;;;25.10;55.40;96851.22;5088861;28;20207;-27
2023/07/21 10:59:03;;;;;;;2.20;2.00;;;;;;;25.10;55.36;96851.22;5078571;28;20200;-27
2023/07/21 11:01:31;;;;;;;2.20;2.00;;;;;;;25.10;55.32;96858.94;5079645;28;20263;-29
2023/07/21 11:03:58;;;;;;;5.93;2.20;;;;;;;25.10;55.05;96858.94;5083499;28;20713;-29
2023/07/21 11:06:25;;;;;;;1.90;1.80;;;;;;;25.10;55.42;96855.50;5081390;28;20225;-28
2023/07/21 11:08:52;;;;;;;2.40;2.20;;;;;;;25.09;55.06;96852.09;5077855;28;20199;-29
2023/07/21 11:11:20;;;;;;;2.53;2.00;;;;;;;25.10;55.56;96853.78;5081349;28;20635;-27
2023/07/21 11:13:46;;;;;;;3.37;2.33;;;;;;;25.10;55.54;96845.22;5079728;28;20229;-28
2023/07/21 11:16:13;;;;;;;2.17;1.97;;;;;;;25.11;55.33;96844.38;5078474;28;20206;-29
2023/07/21 11:18:41;;;;;;;3.03;2.20;;;;;;;25.10;55.06;96843.50;5080645;28;20199;-36
2023/07/21 11:21:07;;;;;;;2.13;1.93;;;;;;;25.12;55.21;96835.78;5086407;28;20737;-27
2023/07/21 11:23:34;;;;;;;2.40;2.20;;;;;;;25.11;55.49;96837.50;5084524;28;20227;-28
2023/07/21 11:26:09;;;;;;;2.43;2.23;;;;;;;25.11;55.15;96829.78;5089030;28;20626;-28
2023/07/21 11:28:38;;;;;;;2.77;2.30;;;;;;;25.11;55.37;96827.22;5081253;28;20199;-27
2023/07/21 11:31:14;;;;;;;2.07;1.97;;;;;;;25.11;55.28;96827.22;5083223;28;20699;-28
2023/07/21 11:33:48;;;;;;;2.27;2.07;;;;;;;25.13;55.16;96827.22;5083590;28;20280;-27
2023/07/21 11:36:20;;;;;;;2.20;1.83;;;;;;;25.13;55.41;96820.38;5078517;28;20200;-31
2023/07/21 11:38:57;;;;;;;2.23;1.90;;;;;;;25.13;55.11;96809.22;5082439;28;20670;-28